Rechercher aéroport 
image banner adimage banner adimage banner ad
image banner ad

0CA9 - Blech Ranch

Situé à Shandon, United States

ICAO - 0CA9, IATA -

Données fournies par Airmate  

Information générale

Coordonnées: N35°35'42" W120°20'20"
Élévation : 1140 feet MSL.
Variation magnétique : 15° East
Voir autres Aéroports à California

Données opérationnelles

Special qualification required
Heure actuelle UTC:
Heure actuelle locale:
Météo à : KPRB - Paso Robles Muni ( 27 km )
METAR: KPRB 291553Z AUTO 00000KT 10SM CLR 20/12 A2998 RMK AO2 SLP146 T02000117
TAF: KPRB 291146Z 2912/3012 VRB03KT P6SM SCT150 FM292000 21010KT P6SM SCT200 FM292300 21017KT P6SM SKC FM300300 21008KT P6SM SKC FM300600 29007KT P6SM SKC FM300900 VRB03KT P6SM SKC
Voir NOTAMs / SUP AIP / TFR affectant cet aéroport [VIEW]
Fréquences de communication: [VIEW]

Pistes:

Identifiant RWYQFULongueur (ft)Largeur (ft)SurfaceLDA (ft)
16330060ASPH
34330060ASPH

Coordonnées de l'aéroport

Adresse: Shandon United States

Vue satellite de 0CA9